Time;durP1;ratioP1;P1;durP2;ratioP2;P2;SDS_P1;SDS_P2;PMS_P1;PMS_P2;Temp;Humidity;BMP_temperature;BMP_pressure;BME280_temperature;BME280_humidity;BME280_pressure;Samples;Min_cycle;Max_cycle;Signal;HPM_P1;HPM_P2
2022/04/05 00:00:27;;;;;;;14.68;2.72;;;7.80;99.90;;;;;;5019608;28;20079;-68
2022/04/05 00:02:53;;;;;;;9.75;2.42;;;7.70;99.90;;;;;;5027385;28;20094;-68
2022/04/05 00:05:19;;;;;;;6.95;1.52;;;7.70;99.90;;;;;;5014062;28;20041;-68
2022/04/05 00:07:45;;;;;;;11.23;2.30;;;7.80;99.90;;;;;;5021522;28;20592;-68
2022/04/05 00:10:10;;;;;;;16.90;2.05;;;7.80;99.90;;;;;;5028102;28;20128;-68
2022/04/05 00:12:36;;;;;;;11.98;2.03;;;7.70;99.90;;;;;;5025958;28;20090;-68
2022/04/05 00:15:02;;;;;;;10.85;2.40;;;7.70;99.90;;;;;;5018471;28;20057;-68
2022/04/05 00:17:27;;;;;;;12.65;1.83;;;7.70;99.90;;;;;;5019546;28;20033;-68
2022/04/05 00:19:53;;;;;;;8.23;1.95;;;7.70;99.90;;;;;;5028249;28;20049;-68
2022/04/05 00:22:19;;;;;;;8.70;1.52;;;7.70;99.90;;;;;;5017905;28;20137;-68
2022/04/05 00:24:44;;;;;;;12.65;1.90;;;7.70;99.90;;;;;;5019774;28;20045;-68
2022/04/05 00:27:10;;;;;;;9.32;2.15;;;7.60;99.90;;;;;;5012750;28;20115;-68
2022/04/05 00:29:35;;;;;;;6.60;1.35;;;7.70;99.90;;;;;;5027878;28;20053;-68
2022/04/05 00:32:01;;;;;;;11.02;1.50;;;7.70;99.90;;;;;;5027367;28;20038;-68
2022/04/05 00:34:26;;;;;;;6.93;1.80;;;7.70;99.90;;;;;;5014916;28;20048;-68
2022/04/05 00:36:53;;;;;;;9.75;2.53;;;7.60;99.90;;;;;;5015705;28;20528;-68
2022/04/05 00:39:18;;;;;;;9.50;1.50;;;7.70;99.90;;;;;;5023084;28;20042;-68
2022/04/05 00:41:44;;;;;;;9.13;2.05;;;7.60;99.90;;;;;;5028352;28;20413;-68
2022/04/05 00:44:10;;;;;;;9.50;1.60;;;7.70;99.90;;;;;;5021778;28;20123;-68
2022/04/05 00:46:35;;;;;;;12.55;2.30;;;7.70;99.90;;;;;;5014447;28;20064;-68
2022/04/05 00:49:01;;;;;;;5.32;1.52;;;7.70;99.90;;;;;;5024491;28;20062;-68
2022/04/05 00:51:27;;;;;;;14.23;1.92;;;7.70;99.90;;;;;;5016475;28;20045;-68
2022/04/05 00:53:56;;;;;;;9.80;2.10;;;7.70;99.90;;;;;;5031730;28;20072;-68
2022/04/05 00:56:24;;;;;;;10.07;2.58;;;7.70;99.90;;;;;;5017229;28;20056;-68
2022/04/05 00:58:53;;;;;;;10.60;2.95;;;7.70;99.90;;;;;;5016577;28;20096;-68
2022/04/05 01:01:20;;;;;;;9.25;2.13;;;7.70;99.90;;;;;;5027901;28;20093;-68
2022/04/05 01:03:49;;;;;;;7.65;2.03;;;7.70;99.90;;;;;;5030747;28;20409;-68
2022/04/05 01:06:31;;;;;;;10.73;1.65;;;7.70;99.90;;;;;;5029774;28;20124;-68
2022/04/05 01:08:57;;;;;;;15.95;3.50;;;7.70;99.90;;;;;;5019659;28;20065;-68
2022/04/05 01:11:23;;;;;;;10.45;1.77;;;7.70;99.90;;;;;;5027154;28;20072;-68
2022/04/05 01:13:49;;;;;;;8.93;2.05;;;7.70;99.90;;;;;;5031475;28;20029;-68
2022/04/05 01:16:16;;;;;;;15.15;2.25;;;7.70;99.90;;;;;;5022940;28;20081;-68
2022/04/05 01:18:41;;;;;;;11.35;2.20;;;7.80;99.90;;;;;;5029270;28;20497;-68
2022/04/05 01:21:08;;;;;;;10.50;2.38;;;7.80;99.90;;;;;;5031032;28;20046;-68
2022/04/05 01:23:33;;;;;;;10.05;2.65;;;7.80;99.90;;;;;;5024141;28;20037;-68
2022/04/05 01:26:00;;;;;;;16.10;3.65;;;7.80;99.90;;;;;;5012047;28;20052;-68
2022/04/05 01:28:26;;;;;;;15.23;2.40;;;7.70;99.90;;;;;;5026977;28;20068;-68
2022/04/05 01:30:52;;;;;;;19.27;2.67;;;7.80;99.90;;;;;;5026435;28;20046;-67
2022/04/05 01:33:18;;;;;;;10.35;2.42;;;7.80;99.90;;;;;;5028221;28;20072;-68
2022/04/05 01:35:45;;;;;;;11.43;2.25;;;7.80;99.90;;;;;;5030881;28;20061;-67
2022/04/05 01:38:12;;;;;;;10.65;2.30;;;7.80;99.90;;;;;;5031610;28;20053;-68
2022/04/05 01:40:38;;;;;;;24.60;2.97;;;7.80;99.90;;;;;;5020619;28;20092;-67
2022/04/05 01:43:04;;;;;;;19.65;3.42;;;7.80;99.90;;;;;;5027182;28;20436;-67
2022/04/05 01:45:30;;;;;;;18.40;2.85;;;7.80;99.90;;;;;;5017884;28;20481;-67
2022/04/05 01:47:56;;;;;;;13.85;2.97;;;7.80;99.90;;;;;;5012764;28;20073;-67
2022/04/05 01:50:21;;;;;;;12.27;2.50;;;7.80;99.90;;;;;;5026708;28;20084;-67
2022/04/05 01:52:47;;;;;;;17.77;2.78;;;7.80;99.90;;;;;;5017519;28;20073;-67
2022/04/05 01:55:12;;;;;;;15.55;2.80;;;7.80;99.90;;;;;;5029959;28;20103;-67
2022/04/05 01:57:38;;;;;;;13.25;2.50;;;7.80;99.90;;;;;;5020159;28;20048;-68
2022/04/05 02:00:07;;;;;;;17.83;3.15;;;7.80;99.90;;;;;;5028936;28;20053;-67
2022/04/05 02:02:32;;;;;;;14.50;2.67;;;7.80;99.90;;;;;;5016278;28;20066;-67
2022/04/05 02:04:58;;;;;;;13.77;2.45;;;7.80;99.90;;;;;;5021601;28;20076;-68
2022/04/05 02:07:23;;;;;;;21.58;4.10;;;7.80;99.90;;;;;;5025909;28;20561;-67
2022/04/05 02:09:49;;;;;;;20.42;2.92;;;7.80;99.90;;;;;;5020985;28;20050;-67
2022/04/05 02:12:16;;;;;;;18.80;2.40;;;7.80;99.90;;;;;;5030215;28;20044;-67
2022/04/05 02:14:43;;;;;;;17.75;3.58;;;7.70;99.90;;;;;;5016661;28;20088;-67
2022/04/05 02:17:09;;;;;;;14.60;3.30;;;7.70;99.90;;;;;;5019079;28;20042;-67
2022/04/05 02:19:36;;;;;;;16.95;3.42;;;7.70;99.90;;;;;;5030197;28;20472;-68
2022/04/05 02:22:02;;;;;;;15.98;3.08;;;7.70;99.90;;;;;;5030654;28;20049;-67
2022/04/05 02:24:28;;;;;;;23.15;3.75;;;7.70;99.90;;;;;;5013173;28;20479;-67
2022/04/05 02:26:53;;;;;;;20.52;3.70;;;7.70;99.90;;;;;;5022916;28;20033;-67
2022/04/05 02:29:19;;;;;;;18.98;2.97;;;7.70;99.90;;;;;;5024941;28;20046;-67
2022/04/05 02:31:44;;;;;;;18.60;2.33;;;7.70;99.90;;;;;;5018106;28;20735;-67
2022/04/05 02:34:10;;;;;;;22.92;2.78;;;7.80;99.90;;;;;;5030904;28;20535;-67
2022/04/05 02:36:36;;;;;;;14.90;2.20;;;7.80;99.90;;;;;;5029386;28;20045;-67
2022/04/05 02:39:03;;;;;;;13.88;2.50;;;7.80;99.90;;;;;;5028416;28;20485;-67
2022/04/05 02:41:29;;;;;;;18.80;3.30;;;7.70;99.90;;;;;;5016793;28;20165;-67
2022/04/05 02:43:55;;;;;;;15.18;2.33;;;7.70;99.90;;;;;;5021210;28;20098;-67
2022/04/05 02:46:20;;;;;;;15.18;4.32;;;7.70;99.90;;;;;;5024591;28;20046;-68
2022/04/05 02:48:46;;;;;;;23.58;3.05;;;7.70;99.90;;;;;;5017887;28;20041;-66
2022/04/05 02:51:15;;;;;;;19.45;2.97;;;7.70;99.90;;;;;;5030007;28;20052;-66
2022/04/05 02:53:42;;;;;;;21.90;3.80;;;7.70;99.90;;;;;;5027687;28;20050;-66
2022/04/05 02:56:08;;;;;;;12.65;2.80;;;7.70;99.90;;;;;;5016374;28;20042;-66
2022/04/05 02:58:37;;;;;;;21.80;3.05;;;7.70;99.90;;;;;;5028228;28;20046;-66
2022/04/05 03:01:04;;;;;;;13.95;3.17;;;7.70;99.90;;;;;;5018937;28;20076;-65
2022/04/05 03:03:30;;;;;;;23.58;4.60;;;7.80;99.90;;;;;;5020897;28;20045;-66
2022/04/05 03:05:56;;;;;;;15.73;3.78;;;7.80;99.90;;;;;;5029023;28;20048;-66
2022/04/05 03:08:22;;;;;;;20.30;2.85;;;7.70;99.90;;;;;;5028813;28;20045;-66
2022/04/05 03:10:48;;;;;;;16.10;2.17;;;7.70;99.90;;;;;;5018104;28;20379;-66
2022/04/05 03:13:13;;;;;;;12.07;1.98;;;7.80;99.90;;;;;;5023184;28;20054;-66
2022/04/05 03:15:39;;;;;;;14.32;2.55;;;7.70;99.90;;;;;;5010513;28;20049;-66
2022/04/05 03:18:04;;;;;;;16.70;3.00;;;7.70;99.90;;;;;;5024840;28;20056;-66
2022/04/05 03:20:31;;;;;;;8.70;1.98;;;7.70;99.90;;;;;;5028286;28;20432;-66
2022/04/05 03:22:59;;;;;;;14.50;2.03;;;7.70;99.90;;;;;;5025648;28;20199;-66
2022/04/05 03:25:24;;;;;;;12.15;2.03;;;7.70;99.90;;;;;;5012740;28;20052;-66
2022/04/05 03:27:50;;;;;;;11.63;2.05;;;7.70;99.90;;;;;;5025263;28;20076;-66
2022/04/05 03:30:18;;;;;;;12.05;1.80;;;7.70;99.90;;;;;;5012044;28;20425;-66
2022/04/05 03:32:43;;;;;;;14.68;2.70;;;7.70;99.90;;;;;;5026892;28;20046;-66
2022/04/05 03:35:09;;;;;;;15.10;2.63;;;7.70;99.90;;;;;;5025262;28;20049;-66
2022/04/05 03:37:35;;;;;;;10.98;2.65;;;7.80;99.90;;;;;;5021723;28;20045;-66
2022/04/05 03:40:01;;;;;;;23.15;3.55;;;7.80;99.90;;;;;;5026543;28;20049;-66
2022/04/05 03:42:27;;;;;;;17.13;3.10;;;7.70;99.90;;;;;;5020975;28;20041;-67
2022/04/05 03:44:52;;;;;;;14.68;3.67;;;7.70;99.90;;;;;;5028911;28;20547;-66
2022/04/05 03:47:18;;;;;;;15.88;3.13;;;7.70;99.90;;;;;;5022278;28;20077;-66
2022/04/05 03:49:44;;;;;;;15.45;2.45;;;7.70;99.90;;;;;;5008560;28;20072;-66
2022/04/05 03:52:09;;;;;;;8.65;2.20;;;7.70;99.90;;;;;;5020910;28;20053;-66
2022/04/05 03:54:35;;;;;;;12.50;2.92;;;7.70;99.90;;;;;;5024960;28;20052;-66
2022/04/05 03:57:01;;;;;;;9.38;1.98;;;7.70;99.90;;;;;;5021947;28;20042;-66
2022/04/05 03:59:26;;;;;;;10.20;2.08;;;7.60;99.90;;;;;;5024261;28;20076;-66
2022/04/05 04:01:52;;;;;;;13.40;2.55;;;7.60;99.90;;;;;;5023130;28;20110;-66
2022/04/05 04:04:17;;;;;;;12.82;2.90;;;7.70;99.90;;;;;;5026543;28;20045;-66
2022/04/05 04:06:44;;;;;;;8.98;2.35;;;7.70;99.90;;;;;;5028141;28;20041;-66
2022/04/05 04:09:11;;;;;;;12.95;2.33;;;7.70;99.90;;;;;;5019821;28;20038;-66
2022/04/05 04:11:40;;;;;;;13.65;2.65;;;7.70;99.90;;;;;;5016186;28;20059;-66
2022/04/05 04:14:06;;;;;;;8.88;2.75;;;7.70;99.90;;;;;;5014026;28;20038;-66
2022/04/05 04:16:32;;;;;;;9.65;2.85;;;7.70;99.90;;;;;;5025385;28;20077;-65
2022/04/05 04:18:57;;;;;;;15.18;2.97;;;7.60;99.90;;;;;;5016656;28;20077;-66
2022/04/05 04:21:23;;;;;;;16.50;3.08;;;7.60;99.90;;;;;;5024444;28;20055;-66
2022/04/05 04:23:48;;;;;;;15.00;2.85;;;7.60;99.90;;;;;;5012964;28;20486;-66
2022/04/05 04:26:14;;;;;;;13.88;2.95;;;7.70;99.90;;;;;;5027286;28;20057;-66
2022/04/05 04:28:39;;;;;;;16.58;2.78;;;7.60;99.90;;;;;;5025603;28;20046;-66
2022/04/05 04:31:05;;;;;;;15.07;2.35;;;7.60;99.90;;;;;;5016048;28;20507;-66
2022/04/05 04:33:31;;;;;;;9.90;2.63;;;7.60;99.90;;;;;;5027401;28;20038;-66
2022/04/05 04:35:57;;;;;;;13.77;3.08;;;7.60;99.90;;;;;;5019645;28;20478;-66
2022/04/05 04:38:23;;;;;;;12.35;2.67;;;7.60;99.90;;;;;;5011777;28;20042;-66
2022/04/05 04:40:52;;;;;;;7.00;1.73;;;7.60;99.90;;;;;;5023372;28;20493;-66
2022/04/05 04:43:19;;;;;;;15.27;2.55;;;7.60;99.90;;;;;;5008687;28;20037;-66
2022/04/05 04:45:45;;;;;;;7.15;2.13;;;7.60;99.90;;;;;;5025775;28;20061;-66
2022/04/05 04:48:11;;;;;;;8.75;2.42;;;7.50;99.90;;;;;;5016581;28;20045;-66
2022/04/05 04:50:37;;;;;;;12.60;2.33;;;7.50;99.90;;;;;;5012412;28;20178;-66
2022/04/05 04:53:03;;;;;;;11.68;2.63;;;7.50;99.90;;;;;;5025983;28;20632;-66
2022/04/05 04:55:29;;;;;;;9.15;2.30;;;7.50;99.90;;;;;;5019104;28;20515;-66
2022/04/05 04:57:55;;;;;;;14.80;2.85;;;7.50;99.90;;;;;;5023734;28;20029;-66
2022/04/05 05:00:20;;;;;;;14.50;2.13;;;7.50;99.90;;;;;;5017071;28;20130;-66
2022/04/05 05:02:50;;;;;;;12.15;2.17;;;7.50;99.90;;;;;;5026191;28;20545;-66
2022/04/05 05:05:20;;;;;;;15.15;2.60;;;7.50;99.90;;;;;;5026902;28;20396;-66
2022/04/05 05:07:50;;;;;;;8.48;2.08;;;7.50;99.90;;;;;;5027821;28;20398;-66
2022/04/05 05:10:17;;;;;;;14.88;4.03;;;7.50;99.90;;;;;;5014908;28;20052;-66
2022/04/05 05:12:43;;;;;;;16.08;3.65;;;7.50;99.90;;;;;;5025013;28;20053;-66
2022/04/05 05:15:10;;;;;;;9.10;2.17;;;7.50;99.90;;;;;;5027540;28;20034;-66
2022/04/05 05:17:36;;;;;;;11.57;2.67;;;7.40;99.90;;;;;;5027463;28;20052;-66
2022/04/05 05:20:06;;;;;;;13.93;3.05;;;7.40;99.90;;;;;;5015685;28;20053;-66
2022/04/05 05:22:32;;;;;;;11.20;2.45;;;7.40;99.90;;;;;;5016918;28;20042;-66
2022/04/05 05:24:58;;;;;;;7.07;2.10;;;7.40;99.90;;;;;;5012449;28;20109;-66
2022/04/05 05:27:23;;;;;;;10.82;1.90;;;7.40;99.90;;;;;;5026856;28;20046;-66
2022/04/05 05:29:49;;;;;;;7.85;1.77;;;7.40;99.90;;;;;;5028267;28;20482;-66
2022/04/05 05:32:14;;;;;;;10.95;1.90;;;7.40;99.90;;;;;;5018412;28;20050;-66
2022/04/05 05:34:40;;;;;;;4.63;1.33;;;7.40;99.90;;;;;;5015547;28;20053;-66
2022/04/05 05:37:06;;;;;;;8.68;2.10;;;7.30;99.90;;;;;;5021011;28;20050;-66
2022/04/05 05:39:32;;;;;;;6.07;1.63;;;7.40;99.90;;;;;;5013962;28;20040;-66
2022/04/05 05:41:58;;;;;;;4.70;1.50;;;7.40;99.90;;;;;;5030183;28;20037;-66
2022/04/05 05:44:24;;;;;;;8.70;2.00;;;7.40;99.90;;;;;;5025309;28;20076;-66
2022/04/05 05:46:50;;;;;;;7.03;1.88;;;7.40;99.90;;;;;;5028046;28;20539;-66
2022/04/05 05:49:16;;;;;;;12.45;3.22;;;7.40;99.90;;;;;;5028974;28;20091;-66
2022/04/05 05:51:42;;;;;;;11.02;2.17;;;7.40;99.90;;;;;;5019423;28;20049;-66
2022/04/05 05:54:08;;;;;;;5.68;1.75;;;7.40;99.90;;;;;;5011217;28;20062;-66
2022/04/05 05:56:33;;;;;;;7.97;1.90;;;7.40;99.90;;;;;;5023590;28;20489;-66
2022/04/05 05:58:59;;;;;;;10.05;1.60;;;7.50;99.90;;;;;;5012848;28;20053;-66
2022/04/05 06:01:25;;;;;;;8.40;1.67;;;7.50;99.90;;;;;;5013507;28;20670;-66
2022/04/05 06:03:51;;;;;;;12.02;2.10;;;7.50;99.90;;;;;;5010800;28;20045;-66
2022/04/05 06:06:16;;;;;;;8.25;1.55;;;7.50;99.90;;;;;;5013052;28;20449;-66
2022/04/05 06:08:42;;;;;;;10.48;1.92;;;7.50;99.90;;;;;;5012473;28;20077;-66
2022/04/05 06:11:08;;;;;;;9.07;2.33;;;7.50;99.90;;;;;;5023049;28;20072;-66
2022/04/05 06:13:37;;;;;;;7.72;1.48;;;7.50;99.90;;;;;;5023755;28;20042;-66
2022/04/05 06:16:03;;;;;;;10.35;2.95;;;7.60;99.90;;;;;;5011349;28;20054;-66
2022/04/05 06:18:28;;;;;;;13.32;2.03;;;7.70;99.90;;;;;;5010770;28;20045;-66
2022/04/05 06:20:54;;;;;;;6.03;1.60;;;7.70;99.90;;;;;;5010917;28;20050;-65
2022/04/05 06:23:20;;;;;;;5.25;1.70;;;7.70;99.90;;;;;;5012580;28;20038;-66
2022/04/05 06:25:45;;;;;;;8.98;1.70;;;7.70;99.90;;;;;;5017651;28;20044;-66
2022/04/05 06:28:11;;;;;;;9.98;1.77;;;7.80;99.90;;;;;;5012073;28;20698;-66
2022/04/05 06:30:38;;;;;;;7.68;2.03;;;7.70;99.90;;;;;;5007961;28;20049;-66
2022/04/05 06:33:18;;;;;;;10.75;1.67;;;7.80;99.90;;;;;;5022037;28;20041;-66
2022/04/05 06:35:46;;;;;;;10.80;1.95;;;7.80;99.90;;;;;;5010495;28;20422;-66
2022/04/05 06:38:12;;;;;;;8.57;1.48;;;7.80;99.90;;;;;;5009418;28;20042;-66
2022/04/05 06:40:41;;;;;;;13.80;1.90;;;7.90;99.90;;;;;;5013434;28;20046;-67
2022/04/05 06:43:07;;;;;;;12.32;2.97;;;7.80;99.90;;;;;;5027491;28;20482;-66
2022/04/05 06:45:32;;;;;;;12.48;2.42;;;7.80;99.90;;;;;;5027656;28;20057;-66
2022/04/05 06:47:58;;;;;;;10.88;2.78;;;7.80;99.90;;;;;;5022165;28;20046;-66
2022/04/05 06:50:27;;;;;;;13.43;2.35;;;7.80;99.90;;;;;;5008690;28;20042;-66
2022/04/05 06:52:58;;;;;;;12.95;2.92;;;7.90;99.90;;;;;;5026590;28;20050;-66
2022/04/05 06:55:24;;;;;;;8.50;2.22;;;7.90;99.90;;;;;;5029145;28;20500;-66
2022/04/05 06:57:51;;;;;;;8.93;1.85;;;7.90;99.90;;;;;;5007937;28;20069;-66
2022/04/05 07:00:18;;;;;;;10.13;1.63;;;7.90;99.90;;;;;;5010120;28;20056;-66
2022/04/05 07:02:44;;;;;;;12.85;2.25;;;7.90;99.90;;;;;;5024303;28;20416;-66
2022/04/05 07:05:09;;;;;;;11.52;1.95;;;7.90;99.90;;;;;;5022944;28;20037;-66
2022/04/05 07:07:37;;;;;;;9.65;1.75;;;8.00;99.90;;;;;;5009479;28;20727;-66
2022/04/05 07:10:03;;;;;;;12.15;2.97;;;7.90;99.90;;;;;;5009902;28;20045;-66
2022/04/05 07:12:30;;;;;;;9.52;1.85;;;8.00;99.90;;;;;;5026071;28;20497;-66
2022/04/05 07:14:55;;;;;;;17.45;3.00;;;8.00;99.90;;;;;;5029664;28;20037;-66
2022/04/05 07:17:21;;;;;;;8.27;2.15;;;8.00;99.90;;;;;;5021197;28;20127;-65
2022/04/05 07:19:46;;;;;;;6.50;1.35;;;8.00;99.90;;;;;;5025797;28;20445;-64
2022/04/05 07:22:12;;;;;;;8.18;1.50;;;8.00;99.90;;;;;;5024535;28;20053;-65
2022/04/05 07:24:38;;;;;;;7.78;1.35;;;8.00;99.90;;;;;;5020792;28;20041;-65
2022/04/05 07:27:03;;;;;;;6.18;1.33;;;8.00;99.90;;;;;;5015042;28;20048;-65
2022/04/05 07:29:29;;;;;;;6.55;2.70;;;8.00;99.90;;;;;;5025635;28;20045;-65
2022/04/05 07:31:54;;;;;;;7.93;1.70;;;8.00;99.90;;;;;;5029030;28;20079;-64
2022/04/05 07:34:20;;;;;;;9.27;2.45;;;8.10;99.90;;;;;;5020347;28;20561;-65
2022/04/05 07:36:46;;;;;;;11.73;2.22;;;8.10;99.90;;;;;;5025104;28;20766;-64
2022/04/05 07:39:11;;;;;;;9.40;1.58;;;8.10;99.90;;;;;;5017974;28;20409;-65
2022/04/05 07:41:38;;;;;;;7.75;1.42;;;8.20;99.90;;;;;;5021322;28;20128;-65
2022/04/05 07:44:04;;;;;;;4.45;1.48;;;8.10;99.90;;;;;;5012697;28;20041;-65
2022/04/05 07:46:29;;;;;;;6.38;1.20;;;8.10;99.90;;;;;;5021803;28;20088;-66
2022/04/05 07:48:55;;;;;;;9.07;2.20;;;8.20;99.90;;;;;;5020693;28;20099;-67
2022/04/05 07:51:21;;;;;;;7.03;2.03;;;8.30;99.90;;;;;;5014190;28;20045;-65
2022/04/05 07:53:46;;;;;;;6.78;1.90;;;8.30;99.90;;;;;;5019401;28;20539;-65
2022/04/05 07:56:13;;;;;;;5.80;1.80;;;8.30;99.90;;;;;;5023158;28;20037;-64
2022/04/05 07:58:43;;;;;;;6.57;1.67;;;8.30;99.90;;;;;;5028389;28;20049;-64
2022/04/05 08:01:09;;;;;;;6.53;1.83;;;8.30;99.90;;;;;;5020636;28;20106;-66
2022/04/05 08:03:36;;;;;;;8.23;1.73;;;8.30;99.90;;;;;;5020597;28;20759;-65
2022/04/05 08:06:02;;;;;;;5.80;2.00;;;8.40;99.90;;;;;;5028984;28;20037;-65
2022/04/05 08:08:28;;;;;;;12.43;2.88;;;8.40;99.90;;;;;;5024535;28;20508;-66
2022/04/05 08:10:54;;;;;;;5.78;1.40;;;8.40;99.90;;;;;;5012769;28;20093;-66
2022/04/05 08:13:20;;;;;;;3.72;0.90;;;8.40;99.90;;;;;;5026199;28;20489;-66
2022/04/05 08:15:47;;;;;;;5.32;1.30;;;8.30;99.90;;;;;;5018747;28;20400;-65
2022/04/05 08:18:12;;;;;;;5.95;1.40;;;8.40;99.90;;;;;;5024513;28;20068;-65
2022/04/05 08:20:41;;;;;;;3.25;1.55;;;8.40;99.90;;;;;;5027757;28;20477;-65
2022/04/05 08:23:08;;;;;;;13.02;2.33;;;8.40;99.90;;;;;;5018092;28;20065;-65
2022/04/05 08:25:35;;;;;;;5.13;1.30;;;8.40;99.90;;;;;;5020806;28;20497;-66
2022/04/05 08:28:01;;;;;;;7.05;1.70;;;8.30;99.90;;;;;;5013994;28;20045;-66
2022/04/05 08:30:27;;;;;;;6.78;1.58;;;8.30;99.90;;;;;;5013615;28;20045;-65
2022/04/05 08:32:52;;;;;;;9.38;1.65;;;8.40;99.90;;;;;;5023803;28;20041;-66
2022/04/05 08:35:21;;;;;;;8.48;2.10;;;8.40;99.90;;;;;;5023533;28;20432;-66
2022/04/05 08:37:49;;;;;;;11.63;2.35;;;8.50;99.90;;;;;;5015595;28;20046;-66
2022/04/05 08:40:16;;;;;;;11.13;2.67;;;8.40;99.90;;;;;;5027084;28;20444;-65
2022/04/05 08:42:44;;;;;;;7.80;1.77;;;8.40;99.90;;;;;;5014640;28;20072;-66
2022/04/05 08:45:12;;;;;;;6.53;1.77;;;8.50;99.90;;;;;;5019444;28;20448;-65
2022/04/05 08:47:47;;;;;;;6.95;1.73;;;8.50;99.90;;;;;;5011373;28;20056;-65
2022/04/05 08:50:15;;;;;;;4.55;2.03;;;8.50;99.90;;;;;;5024197;28;20151;-66
2022/04/05 08:52:43;;;;;;;3.08;1.30;;;8.50;99.90;;;;;;5023545;28;20064;-66
2022/04/05 08:55:09;;;;;;;4.43;1.42;;;8.60;99.90;;;;;;5017366;28;20058;-66
2022/04/05 08:57:34;;;;;;;2.92;1.00;;;8.60;99.90;;;;;;5026778;28;20111;-66
2022/04/05 09:00:02;;;;;;;7.40;1.48;;;8.60;99.90;;;;;;5027026;28;20054;-66
2022/04/05 09:02:28;;;;;;;4.22;1.58;;;8.60;99.90;;;;;;5022445;28;20050;-66
2022/04/05 09:04:54;;;;;;;2.85;1.23;;;8.60;99.90;;;;;;5021581;28;20061;-66
2022/04/05 09:07:28;;;;;;;2.97;1.83;;;8.50;99.90;;;;;;5013855;28;20054;-66
2022/04/05 09:10:16;;;;;;;3.65;1.63;;;8.50;99.90;;;;;;5024626;28;20056;-66
2022/04/05 09:12:44;;;;;;;3.30;1.30;;;8.50;99.90;;;;;;5029285;28;20099;-66
2022/04/05 09:15:16;;;;;;;1.67;1.00;;;8.50;99.90;;;;;;5024563;28;20085;-66
2022/04/05 09:17:43;;;;;;;1.92;0.88;;;8.50;99.90;;;;;;5014889;28;20576;-66
2022/04/05 09:20:10;;;;;;;2.95;1.20;;;8.60;99.90;;;;;;5030960;28;20048;-66
2022/04/05 09:22:36;;;;;;;3.50;1.08;;;8.60;99.90;;;;;;5023438;28;20610;-65
2022/04/05 09:25:14;;;;;;;2.97;1.60;;;8.60;99.90;;;;;;5021717;28;20053;-66
2022/04/05 09:27:43;;;;;;;2.17;0.90;;;8.70;99.90;;;;;;5029328;28;20098;-66
2022/04/05 09:30:17;;;;;;;1.08;0.93;;;8.80;99.90;;;;;;5025419;28;20042;-66
2022/04/05 09:32:47;;;;;;;2.45;0.70;;;8.80;99.90;;;;;;5017221;28;20045;-65
2022/04/05 09:35:13;;;;;;;2.50;0.73;;;8.80;99.90;;;;;;5020779;28;20466;-66
2022/04/05 09:37:39;;;;;;;1.10;0.80;;;8.80;99.90;;;;;;5031650;28;20042;-65
2022/04/05 09:40:26;;;;;;;0.68;0.60;;;8.90;99.90;;;;;;5021212;28;20042;-66
2022/04/05 09:43:01;;;;;;;1.25;0.60;;;9.00;99.90;;;;;;5029110;28;20046;-66
2022/04/05 09:45:47;;;;;;;2.80;0.80;;;9.00;99.90;;;;;;5027951;28;20049;-66
2022/04/05 09:48:14;;;;;;;2.72;1.15;;;9.10;99.90;;;;;;5014792;28;20050;-66
2022/04/05 09:51:14;;;;;;;1.20;0.90;;;9.00;99.90;;;;;;5026813;28;20180;-66
2022/04/05 09:53:39;;;;;;;0.60;0.60;;;9.00;99.90;;;;;;5030347;28;20088;-66
2022/04/05 09:56:09;;;;;;;1.35;0.95;;;9.00;99.90;;;;;;5020451;28;20077;-65
2022/04/05 09:58:35;;;;;;;1.25;1.00;;;9.10;99.90;;;;;;5020003;28;20480;-66
2022/04/05 10:01:04;;;;;;;1.50;0.90;;;9.00;99.90;;;;;;5030216;28;20056;-66
2022/04/05 10:03:29;;;;;;;4.82;0.90;;;9.00;99.90;;;;;;5030342;28;20108;-66
2022/04/05 10:05:55;;;;;;;1.25;0.68;;;9.10;99.90;;;;;;5019929;28;20137;-66
2022/04/05 10:08:21;;;;;;;1.10;0.57;;;9.10;99.90;;;;;;5027056;28;20049;-66
2022/04/05 10:10:47;;;;;;;1.38;0.82;;;9.20;99.90;;;;;;5030950;28;20053;-66
2022/04/05 10:13:13;;;;;;;1.13;0.63;;;9.30;99.90;;;;;;5022091;28;20178;-66
2022/04/05 10:15:41;;;;;;;1.67;0.73;;;9.20;99.90;;;;;;5019462;28;20046;-66
2022/04/05 10:18:07;;;;;;;1.50;0.75;;;9.20;99.90;;;;;;5025147;28;20132;-66
2022/04/05 10:20:34;;;;;;;2.45;0.90;;;9.30;99.90;;;;;;5016587;28;20501;-66
2022/04/05 10:23:02;;;;;;;3.10;0.70;;;9.30;99.90;;;;;;5029228;28;20534;-66
2022/04/05 10:25:30;;;;;;;2.75;1.30;;;9.40;99.90;;;;;;5017971;28;20045;-66
2022/04/05 10:27:56;;;;;;;0.98;0.73;;;9.50;99.90;;;;;;5026167;28;20037;-66
2022/04/05 10:30:27;;;;;;;1.02;0.80;;;9.60;99.90;;;;;;5020638;28;20532;-66
2022/04/05 10:33:04;;;;;;;1.67;1.20;;;9.60;99.90;;;;;;5022650;28;20083;-64
2022/04/05 10:35:35;;;;;;;2.03;1.35;;;9.60;99.90;;;;;;5017352;28;20064;-64
2022/04/05 10:38:18;;;;;;;4.10;1.63;;;9.70;99.90;;;;;;5018520;28;20473;-65
2022/04/05 10:41:18;;;;;;;2.38;1.77;;;9.80;99.90;;;;;;5026921;28;20052;-65
2022/04/05 10:43:46;;;;;;;2.25;1.67;;;9.80;99.90;;;;;;5030002;28;20069;-65
2022/04/05 10:46:12;;;;;;;3.13;2.22;;;9.90;99.90;;;;;;5011433;28;20064;-65
2022/04/05 10:48:54;;;;;;;3.08;2.50;;;10.00;99.90;;;;;;5024268;28;20548;-65
2022/04/05 10:51:32;;;;;;;2.63;1.48;;;10.30;99.90;;;;;;5023320;28;20042;-65
2022/04/05 10:54:19;;;;;;;2.45;2.10;;;10.40;99.90;;;;;;5021689;28;20081;-65
2022/04/05 10:57:26;;;;;;;4.03;2.55;;;10.50;99.90;;;;;;5016962;28;20049;-65
2022/04/05 11:00:00;;;;;;;3.63;2.10;;;10.50;99.90;;;;;;5023236;28;20052;-65
2022/04/05 11:02:28;;;;;;;2.13;1.77;;;10.60;99.90;;;;;;5019675;28;20038;-65
2022/04/05 11:05:02;;;;;;;3.03;2.40;;;10.60;99.90;;;;;;5021780;28;20406;-65
2022/04/05 11:07:28;;;;;;;2.33;1.92;;;10.70;99.90;;;;;;5011915;28;20080;-65
2022/04/05 11:09:57;;;;;;;2.55;2.35;;;10.70;99.90;;;;;;5027517;28;20132;-65
2022/04/05 11:12:26;;;;;;;3.25;2.67;;;10.70;99.90;;;;;;5025002;28;20045;-66
2022/04/05 11:15:03;;;;;;;3.50;2.95;;;11.00;99.90;;;;;;5027235;28;20054;-65
2022/04/05 11:17:30;;;;;;;3.03;2.72;;;11.40;99.90;;;;;;5021558;28;20057;-65
2022/04/05 11:19:59;;;;;;;4.75;3.17;;;11.60;99.90;;;;;;5022582;28;20037;-65
2022/04/05 11:22:34;;;;;;;3.75;3.10;;;11.50;99.90;;;;;;5029116;28;20045;-65
2022/04/05 11:25:09;;;;;;;3.58;3.28;;;11.40;99.90;;;;;;5027940;28;20042;-65
2022/04/05 11:27:48;;;;;;;4.47;3.22;;;11.30;99.90;;;;;;5014223;28;20548;-65
2022/04/05 11:30:22;;;;;;;5.38;3.65;;;11.20;99.90;;;;;;5028562;28;20057;-66
2022/04/05 11:33:09;;;;;;;4.32;3.10;;;11.20;99.90;;;;;;5028182;28;20041;-65
2022/04/05 11:35:50;;;;;;;4.15;3.75;;;11.10;99.90;;;;;;5018682;28;20367;-65
2022/04/05 11:38:18;;;;;;;5.72;3.88;;;11.10;99.90;;;;;;5024960;28;20095;-66
2022/04/05 11:40:46;;;;;;;5.63;3.88;;;11.20;99.90;;;;;;5020334;28;20128;-65
2022/04/05 11:43:31;;;;;;;4.32;3.92;;;11.20;99.90;;;;;;5025148;28;20519;-65
2022/04/05 11:46:03;;;;;;;7.90;4.75;;;11.40;99.90;;;;;;5021298;28;20072;-65
2022/04/05 11:48:30;;;;;;;6.60;5.05;;;11.60;99.90;;;;;;5028285;28;20063;-65
2022/04/05 11:50:59;;;;;;;5.03;4.03;;;11.90;99.90;;;;;;5020246;28;20077;-65
2022/04/05 11:53:28;;;;;;;4.75;4.30;;;11.70;99.90;;;;;;5018574;28;20132;-65
2022/04/05 11:56:17;;;;;;;7.05;5.18;;;11.90;99.90;;;;;;5028159;28;20520;-65
2022/04/05 11:58:49;;;;;;;6.20;5.38;;;12.00;99.90;;;;;;5027553;28;20136;-66
2022/04/05 12:01:20;;;;;;;8.05;5.25;;;11.80;99.90;;;;;;5019277;28;20385;-66
2022/04/05 12:03:56;;;;;;;9.02;6.20;;;11.60;99.90;;;;;;5018116;28;20080;-66
2022/04/05 12:06:23;;;;;;;14.27;6.68;;;11.60;99.90;;;;;;5025268;28;20049;-66
2022/04/05 12:08:51;;;;;;;12.27;6.43;;;11.40;99.90;;;;;;5022587;28;20473;-66
2022/04/05 12:11:20;;;;;;;9.15;4.82;;;11.20;99.90;;;;;;5027339;28;20080;-66
2022/04/05 12:13:52;;;;;;;12.27;5.90;;;11.20;99.90;;;;;;5019710;28;20045;-66
2022/04/05 12:16:19;;;;;;;8.07;5.28;;;11.10;99.90;;;;;;5017937;28;20046;-66
2022/04/05 12:18:45;;;;;;;11.68;4.60;;;11.10;99.90;;;;;;5024020;28;20393;-65
2022/04/05 12:21:11;;;;;;;7.72;4.82;;;10.90;99.90;;;;;;5013627;28;20045;-66
2022/04/05 12:23:39;;;;;;;16.20;5.57;;;10.90;99.90;;;;;;5028318;28;20091;-65
2022/04/05 12:26:08;;;;;;;10.32;5.15;;;10.80;99.90;;;;;;5011390;28;20513;-66
2022/04/05 12:28:40;;;;;;;17.38;7.38;;;10.80;99.90;;;;;;5018355;28;20057;-66
2022/04/05 12:31:11;;;;;;;25.38;7.50;;;10.80;99.90;;;;;;5014381;28;20049;-66
2022/04/05 12:33:38;;;;;;;28.58;8.43;;;10.70;99.90;;;;;;5027905;28;20041;-66
2022/04/05 12:36:06;;;;;;;26.98;8.40;;;10.70;99.90;;;;;;5026370;28;20045;-66
2022/04/05 12:38:32;;;;;;;22.80;7.85;;;10.50;99.90;;;;;;5023633;28;20070;-66
2022/04/05 12:40:59;;;;;;;18.45;7.97;;;10.50;99.90;;;;;;5020009;28;20576;-66
2022/04/05 12:43:25;;;;;;;23.80;7.80;;;10.50;99.90;;;;;;5026963;28;20057;-66
2022/04/05 12:45:51;;;;;;;30.45;8.30;;;10.50;99.90;;;;;;5025696;28;20281;-66
2022/04/05 12:48:19;;;;;;;30.42;9.25;;;10.40;99.90;;;;;;5019559;28;20131;-66
2022/04/05 12:50:51;;;;;;;25.63;8.25;;;10.40;99.90;;;;;;5017191;28;20536;-66
2022/04/05 12:53:28;;;;;;;30.75;10.43;;;10.40;99.90;;;;;;5029786;28;20060;-66